createdAt,value
2023-05-20T00:00:54.793Z,32.20
2023-05-20T00:03:23.075Z,30.60
2023-05-20T00:05:51.515Z,31.40
2023-05-20T00:08:19.959Z,31.40
2023-05-20T00:10:48.037Z,30.20
2023-05-20T00:13:15.944Z,31.20
2023-05-20T00:15:43.971Z,31.90
2023-05-20T00:18:12.067Z,32.30
2023-05-20T00:20:40.115Z,29.90
2023-05-20T00:23:08.182Z,32.80
2023-05-20T00:25:36.408Z,29.80
2023-05-20T00:28:06.197Z,29.60
2023-05-20T00:30:34.157Z,30.40
2023-05-20T00:33:02.369Z,31.40
2023-05-20T00:35:30.395Z,29.80
2023-05-20T00:37:58.286Z,33.70
2023-05-20T00:40:26.396Z,28.60
2023-05-20T00:42:54.932Z,29.40
2023-05-20T00:45:23.122Z,32.40
2023-05-20T00:47:51.251Z,28.60
2023-05-20T00:50:19.323Z,29.80
2023-05-20T00:52:48.384Z,31.30
2023-05-20T00:55:16.774Z,27.80
2023-05-20T00:57:44.793Z,30.20
2023-05-20T01:00:14.205Z,29.10
2023-05-20T01:02:42.355Z,29.00
2023-05-20T01:05:10.829Z,28.70
2023-05-20T01:07:39.012Z,28.60
2023-05-20T01:10:07.647Z,29.20
2023-05-20T01:13:05.291Z,30.80
2023-05-20T01:15:33.960Z,30.00
2023-05-20T01:18:06.093Z,31.10
2023-05-20T01:20:35.994Z,32.90
2023-05-20T01:23:04.407Z,29.40
2023-05-20T01:25:32.527Z,34.30
2023-05-20T01:28:02.222Z,32.50
2023-05-20T01:30:36.069Z,30.50
2023-05-20T01:33:09.820Z,29.80
2023-05-20T01:35:41.552Z,31.60
2023-05-20T01:38:12.733Z,32.30
2023-05-20T01:40:42.927Z,33.00
2023-05-20T01:43:11.175Z,35.70
2023-05-20T01:45:42.049Z,33.50
2023-05-20T01:48:13.541Z,35.20
2023-05-20T01:50:42.520Z,32.60
2023-05-20T01:53:11.742Z,35.30
2023-05-20T01:55:39.771Z,35.00
2023-05-20T01:58:07.769Z,33.40
2023-05-20T02:00:37.138Z,37.60
2023-05-20T02:03:05.420Z,34.70
2023-05-20T02:05:33.744Z,33.00
2023-05-20T02:08:02.069Z,35.60
2023-05-20T02:10:30.087Z,38.60
2023-05-20T02:12:58.025Z,35.40
2023-05-20T02:15:26.226Z,36.40
2023-05-20T02:17:54.926Z,35.20
2023-05-20T02:20:22.941Z,35.70
2023-05-20T02:22:50.953Z,37.10
2023-05-20T02:25:18.994Z,32.30
2023-05-20T02:27:46.977Z,35.90
2023-05-20T02:30:15.201Z,35.20
2023-05-20T02:32:43.272Z,38.30
2023-05-20T02:35:11.441Z,37.30
2023-05-20T02:37:39.598Z,34.80
2023-05-20T02:40:09.385Z,36.70
2023-05-20T02:42:41.263Z,33.90
2023-05-20T02:45:09.787Z,33.30
2023-05-20T02:47:37.840Z,34.60
2023-05-20T02:50:07.227Z,35.80
2023-05-20T02:52:35.243Z,35.90
2023-05-20T02:55:04.924Z,36.60
2023-05-20T02:57:35.138Z,32.30
2023-05-20T03:00:05.054Z,36.00
2023-05-20T03:02:33.849Z,33.00
2023-05-20T03:05:02.614Z,34.10
2023-05-20T03:07:31.716Z,34.70
2023-05-20T03:09:59.992Z,37.00
2023-05-20T03:12:28.031Z,34.50
2023-05-20T03:14:56.110Z,36.30
2023-05-20T03:17:24.307Z,33.80
2023-05-20T03:19:52.239Z,35.70
2023-05-20T03:22:20.227Z,36.80
2023-05-20T03:24:48.511Z,34.20
2023-05-20T03:27:16.475Z,37.60
2023-05-20T03:29:44.633Z,40.00
2023-05-20T03:32:12.573Z,36.10
2023-05-20T03:34:40.846Z,38.00
2023-05-20T03:37:08.834Z,38.60
2023-05-20T03:39:36.951Z,40.10
2023-05-20T03:42:05.536Z,37.00
2023-05-20T03:44:33.956Z,36.50
2023-05-20T03:47:02.093Z,36.00
2023-05-20T03:49:31.123Z,33.80
2023-05-20T03:51:59.167Z,36.50
2023-05-20T03:54:28.163Z,33.50
2023-05-20T03:56:56.689Z,32.60
2023-05-20T03:59:24.919Z,34.30
2023-05-20T04:01:53.375Z,32.60
2023-05-20T04:04:21.472Z,33.40
2023-05-20T04:06:49.914Z,32.70
2023-05-20T04:09:17.905Z,29.80
2023-05-20T04:11:46.301Z,31.60
2023-05-20T04:14:15.350Z,31.50
2023-05-20T04:16:45.252Z,29.70
2023-05-20T04:19:13.424Z,32.30
2023-05-20T04:21:43.322Z,29.00
2023-05-20T04:24:11.855Z,28.10
2023-05-20T04:26:40.296Z,30.40
2023-05-20T04:29:08.268Z,29.90
2023-05-20T04:31:38.592Z,29.50
2023-05-20T04:34:06.597Z,33.20
2023-05-20T04:36:34.740Z,30.80
2023-05-20T04:39:05.135Z,29.80
2023-05-20T04:41:33.265Z,29.20
2023-05-20T04:44:01.969Z,28.70
2023-05-20T04:46:31.718Z,31.70
2023-05-20T04:48:59.967Z,30.90
2023-05-20T04:51:29.493Z,28.80
2023-05-20T04:54:35.866Z,28.60
2023-05-20T04:57:35.321Z,27.90
2023-05-20T05:00:07.368Z,27.60
2023-05-20T05:02:36.352Z,30.60
2023-05-20T05:05:05.044Z,30.90
2023-05-20T05:07:33.325Z,29.40
2023-05-20T05:10:01.462Z,29.60
2023-05-20T05:12:31.228Z,30.50
2023-05-20T05:14:59.999Z,28.20
2023-05-20T05:17:29.250Z,33.00
2023-05-20T05:19:58.269Z,28.00
2023-05-20T05:22:27.112Z,28.70
2023-05-20T05:24:55.902Z,30.20
2023-05-20T05:27:24.268Z,30.20
2023-05-20T05:29:52.510Z,28.60
2023-05-20T05:32:20.807Z,34.10
2023-05-20T05:34:49.123Z,29.60
2023-05-20T05:37:17.363Z,30.70
2023-05-20T05:39:45.610Z,31.30
2023-05-20T05:42:13.863Z,30.00
2023-05-20T05:44:42.784Z,31.00
2023-05-20T05:47:11.713Z,33.70
2023-05-20T05:49:39.833Z,30.10
2023-05-20T05:52:08.224Z,28.70
2023-05-20T05:54:36.626Z,28.80
2023-05-20T05:57:06.483Z,28.90
2023-05-20T05:59:35.468Z,28.50
2023-05-20T06:02:06.424Z,28.20
2023-05-20T06:04:34.508Z,25.00
2023-05-20T06:07:02.814Z,27.50
2023-05-20T06:09:31.112Z,28.40
2023-05-20T06:11:59.682Z,27.70
2023-05-20T06:14:27.775Z,31.40
2023-05-20T06:16:56.054Z,29.30
2023-05-20T06:19:24.602Z,32.50
2023-05-20T06:21:52.748Z,29.20
2023-05-20T06:24:22.410Z,27.50
2023-05-20T06:26:52.439Z,25.40
2023-05-20T06:29:21.063Z,29.10
2023-05-20T06:31:49.044Z,29.20
2023-05-20T06:34:16.996Z,27.00
2023-05-20T06:36:44.946Z,29.00
2023-05-20T06:39:13.127Z,28.80
2023-05-20T06:41:44.433Z,33.80
2023-05-20T06:44:19.943Z,28.70
2023-05-20T06:47:00.022Z,34.70
2023-05-20T06:49:28.531Z,28.70
2023-05-20T06:51:56.707Z,30.50
2023-05-20T06:54:25.598Z,30.70
2023-05-20T06:56:53.737Z,32.60
2023-05-20T06:59:22.689Z,28.90
2023-05-20T07:01:50.772Z,27.50
2023-05-20T07:04:19.883Z,32.70
2023-05-20T07:06:48.155Z,33.00
2023-05-20T07:09:16.482Z,34.20
2023-05-20T07:11:44.569Z,31.40
2023-05-20T07:14:12.961Z,26.80
2023-05-20T07:16:41.672Z,28.20
2023-05-20T07:19:10.115Z,27.80
2023-05-20T07:21:38.186Z,29.70
2023-05-20T07:24:24.301Z,27.60
2023-05-20T07:26:52.454Z,30.60
2023-05-20T07:29:20.549Z,27.40
2023-05-20T07:31:48.646Z,29.50
2023-05-20T07:34:17.513Z,28.20
2023-05-20T07:36:45.550Z,28.10
2023-05-20T07:39:15.331Z,28.90
2023-05-20T07:41:43.665Z,29.80
2023-05-20T07:44:13.078Z,27.40
2023-05-20T07:46:44.066Z,26.60
2023-05-20T07:49:12.537Z,26.50
2023-05-20T07:51:41.593Z,27.10
2023-05-20T07:54:09.717Z,24.60
2023-05-20T07:56:38.496Z,25.30
2023-05-20T07:59:07.606Z,23.80
2023-05-20T08:01:42.246Z,25.70
2023-05-20T08:04:12.084Z,24.90
2023-05-20T08:06:41.398Z,26.50
2023-05-20T08:09:11.811Z,27.70
2023-05-20T08:11:42.171Z,26.70
2023-05-20T08:14:10.264Z,24.90
2023-05-20T08:16:42.470Z,25.50
2023-05-20T08:19:10.751Z,25.50
2023-05-20T08:21:39.248Z,26.80
2023-05-20T08:24:08.089Z,23.30
2023-05-20T08:26:36.411Z,28.00
2023-05-20T08:29:04.500Z,30.90
2023-05-20T08:31:33.583Z,23.80
2023-05-20T08:34:01.811Z,24.30
2023-05-20T08:36:29.888Z,25.90
2023-05-20T08:38:58.035Z,26.20
2023-05-20T08:41:26.424Z,24.00
2023-05-20T08:43:54.702Z,28.80
2023-05-20T08:46:23.652Z,28.90
2023-05-20T08:48:52.223Z,29.00
2023-05-20T08:51:23.834Z,24.10
2023-05-20T08:53:52.351Z,26.10
2023-05-20T08:56:21.991Z,25.50
2023-05-20T08:58:50.549Z,24.90
2023-05-20T09:01:18.703Z,24.10
2023-05-20T09:03:46.670Z,26.60
2023-05-20T09:06:17.986Z,23.90
2023-05-20T09:08:47.024Z,24.70
2023-05-20T09:11:15.113Z,26.10
2023-05-20T09:13:43.431Z,28.10
2023-05-20T09:16:11.791Z,26.50
2023-05-20T09:18:40.894Z,23.00
2023-05-20T09:21:10.285Z,26.40
2023-05-20T09:23:38.665Z,24.70
2023-05-20T09:26:06.895Z,27.70
2023-05-20T09:28:36.144Z,25.30
2023-05-20T09:31:05.807Z,26.90
2023-05-20T09:33:35.685Z,24.70
2023-05-20T09:36:05.129Z,25.80
2023-05-20T09:38:38.254Z,25.50
2023-05-20T09:41:13.925Z,25.40
2023-05-20T09:43:42.484Z,25.70
2023-05-20T09:46:10.997Z,27.30
2023-05-20T09:48:40.156Z,26.70
2023-05-20T09:51:09.826Z,30.80
2023-05-20T09:53:38.021Z,27.00
2023-05-20T09:56:06.285Z,27.50
2023-05-20T09:58:36.135Z,28.80
2023-05-20T10:01:04.218Z,27.10
2023-05-20T10:03:33.450Z,29.10
2023-05-20T10:06:21.544Z,28.70
2023-05-20T10:08:58.077Z,29.30
2023-05-20T10:11:44.363Z,27.60
2023-05-20T10:14:37.164Z,27.60
2023-05-20T10:17:13.490Z,31.00
2023-05-20T10:19:41.946Z,27.90
2023-05-20T10:22:11.791Z,27.80
2023-05-20T10:24:41.895Z,27.20
2023-05-20T10:27:18.176Z,27.70
2023-05-20T10:29:52.291Z,25.40
2023-05-20T10:32:27.991Z,25.90
2023-05-20T10:35:01.626Z,31.00
2023-05-20T10:40:08.898Z,27.10
2023-05-20T10:42:37.137Z,27.30
2023-05-20T10:45:06.526Z,25.00
2023-05-20T10:47:35.354Z,26.70
2023-05-20T10:50:06.025Z,25.50
2023-05-20T10:52:37.050Z,27.10
2023-05-20T10:55:05.538Z,28.90
2023-05-20T10:57:34.658Z,26.40
2023-05-20T11:00:05.593Z,26.60
2023-05-20T11:02:34.515Z,26.10
2023-05-20T11:05:04.390Z,28.50
2023-05-20T11:07:32.582Z,25.00
2023-05-20T11:10:00.667Z,25.20
2023-05-20T11:12:28.705Z,25.70
2023-05-20T11:14:56.902Z,27.50
2023-05-20T11:17:25.000Z,27.40
2023-05-20T11:19:53.044Z,31.30
2023-05-20T11:22:21.218Z,25.10
2023-05-20T11:24:49.195Z,28.40
2023-05-20T11:27:17.306Z,25.00
2023-05-20T11:29:45.547Z,24.70
2023-05-20T11:32:13.551Z,23.90
2023-05-20T11:34:42.734Z,24.90
2023-05-20T11:37:11.796Z,24.60
2023-05-20T11:39:40.381Z,22.80
2023-05-20T11:42:08.451Z,23.10
2023-05-20T11:44:36.583Z,23.60
2023-05-20T11:47:04.845Z,22.10
2023-05-20T11:49:40.534Z,21.80
2023-05-20T11:52:10.308Z,20.80
2023-05-20T11:54:38.622Z,21.50
2023-05-20T11:57:07.328Z,27.20
2023-05-20T11:59:35.630Z,21.10
2023-05-20T12:02:03.687Z,21.40
2023-05-20T12:04:31.743Z,20.70
2023-05-20T12:06:59.891Z,21.20
2023-05-20T12:09:28.027Z,20.90
2023-05-20T12:11:56.916Z,20.80
2023-05-20T12:14:24.964Z,21.00
2023-05-20T12:16:53.804Z,22.00
2023-05-20T12:19:21.814Z,22.20
2023-05-20T12:21:49.890Z,23.30
2023-05-20T12:24:17.890Z,22.90
2023-05-20T12:26:45.830Z,21.00
2023-05-20T12:29:13.890Z,24.40
2023-05-20T12:31:41.899Z,25.30
2023-05-20T12:34:09.841Z,24.20
2023-05-20T12:36:37.970Z,22.20
2023-05-20T12:39:06.229Z,21.20
2023-05-20T12:41:34.333Z,24.10
2023-05-20T12:44:02.559Z,25.50
2023-05-20T12:46:30.754Z,22.30
2023-05-20T12:48:58.760Z,23.90
2023-05-20T12:51:26.783Z,21.70
2023-05-20T12:53:54.784Z,21.10
2023-05-20T12:56:23.831Z,23.40
2023-05-20T12:58:51.875Z,19.30
2023-05-20T13:01:19.869Z,21.20
2023-05-20T13:03:48.127Z,19.60
2023-05-20T13:06:16.798Z,19.60
2023-05-20T13:08:45.484Z,19.30
2023-05-20T13:11:13.784Z,18.80
2023-05-20T13:13:41.757Z,18.00
2023-05-20T13:16:10.699Z,18.20
2023-05-20T13:18:38.753Z,21.00
2023-05-20T13:21:06.847Z,15.90
2023-05-20T13:23:34.910Z,20.40
2023-05-20T13:26:03.125Z,17.20
2023-05-20T13:28:31.442Z,17.90
2023-05-20T13:30:59.486Z,19.40
2023-05-20T13:33:27.508Z,19.10
2023-05-20T13:35:55.635Z,24.40
2023-05-20T13:38:23.638Z,21.60
2023-05-20T13:40:51.738Z,22.00
2023-05-20T13:43:19.687Z,23.00
2023-05-20T13:45:47.799Z,18.10
2023-05-20T13:48:16.260Z,21.00
2023-05-20T13:50:44.420Z,19.00
2023-05-20T13:53:13.886Z,17.20
2023-05-20T13:55:42.123Z,17.50
2023-05-20T13:58:10.149Z,14.90
2023-05-20T14:00:39.137Z,16.20
2023-05-20T14:03:09.192Z,17.20
2023-05-20T14:05:37.533Z,15.70
2023-05-20T14:08:05.679Z,14.10
2023-05-20T14:10:33.929Z,15.20
2023-05-20T14:13:02.296Z,19.90
2023-05-20T14:15:33.078Z,14.90
2023-05-20T14:18:01.138Z,15.40
2023-05-20T14:20:29.085Z,19.70
2023-05-20T14:22:57.324Z,15.90
2023-05-20T14:25:25.301Z,13.50
2023-05-20T14:27:53.370Z,18.00
2023-05-20T14:30:21.464Z,13.90
2023-05-20T14:32:49.564Z,17.30
2023-05-20T14:35:18.354Z,19.40
2023-05-20T14:37:46.574Z,19.40
2023-05-20T14:40:14.847Z,20.60
2023-05-20T14:42:42.829Z,15.80
2023-05-20T14:45:11.281Z,16.20
2023-05-20T14:47:42.002Z,16.80
2023-05-20T14:50:10.226Z,14.50
2023-05-20T14:52:38.256Z,20.30
2023-05-20T14:55:06.348Z,15.10
2023-05-20T14:57:34.381Z,14.70
2023-05-20T15:00:02.413Z,14.10
2023-05-20T15:02:30.610Z,13.90
2023-05-20T15:04:59.052Z,15.50
2023-05-20T15:07:27.737Z,18.60
2023-05-20T15:09:55.894Z,33.80
2023-05-20T15:12:24.005Z,22.00
2023-05-20T15:14:51.946Z,17.40
2023-05-20T15:17:19.883Z,17.00
2023-05-20T15:19:47.829Z,16.60
2023-05-20T15:22:15.866Z,16.60
2023-05-20T15:24:43.790Z,19.10
2023-05-20T15:27:11.787Z,17.60
2023-05-20T15:29:40.906Z,19.50
2023-05-20T15:32:09.088Z,17.70
2023-05-20T15:34:37.142Z,17.60
2023-05-20T15:37:05.103Z,16.80
2023-05-20T15:39:37.294Z,21.30
2023-05-20T15:42:06.416Z,18.00
2023-05-20T15:44:36.163Z,17.50
2023-05-20T15:47:06.145Z,18.70
2023-05-20T15:49:34.258Z,18.20
2023-05-20T15:52:03.924Z,19.80
2023-05-20T15:54:32.957Z,18.20
2023-05-20T15:57:01.260Z,19.50
2023-05-20T15:59:29.314Z,19.30
2023-05-20T16:01:57.481Z,22.90
2023-05-20T16:04:25.896Z,24.10
2023-05-20T16:06:54.094Z,23.00
2023-05-20T16:09:22.443Z,22.60
2023-05-20T16:11:50.492Z,20.60
2023-05-20T16:14:18.657Z,19.10
2023-05-20T16:16:46.720Z,19.00
2023-05-20T16:19:14.790Z,18.20
2023-05-20T16:21:42.794Z,19.90
2023-05-20T16:24:10.877Z,19.50
2023-05-20T16:26:38.869Z,19.00
2023-05-20T16:29:07.172Z,19.10
2023-05-20T16:31:35.134Z,18.70
2023-05-20T16:34:03.986Z,23.30
2023-05-20T16:36:32.039Z,22.00
2023-05-20T16:38:59.977Z,24.30
2023-05-20T16:41:28.004Z,25.20
2023-05-20T16:43:58.752Z,22.20
2023-05-20T16:46:26.783Z,30.50
2023-05-20T16:48:54.958Z,33.40
2023-05-20T16:51:23.608Z,25.30
2023-05-20T16:53:51.926Z,22.30
2023-05-20T16:56:22.115Z,23.90
2023-05-20T16:58:52.682Z,28.60
2023-05-20T17:01:21.911Z,36.20
2023-05-20T17:03:50.013Z,27.70
2023-05-20T17:06:18.066Z,36.90
2023-05-20T17:08:46.188Z,49.50
2023-05-20T17:11:14.223Z,42.10
2023-05-20T17:13:42.398Z,41.10
2023-05-20T17:16:12.120Z,39.70
2023-05-20T17:18:40.327Z,40.10
2023-05-20T17:21:08.382Z,47.70
2023-05-20T17:23:36.375Z,41.00
2023-05-20T17:26:04.577Z,39.10
2023-05-20T17:28:32.537Z,37.00
2023-05-20T17:31:00.492Z,30.80
2023-05-20T17:33:28.676Z,38.20
2023-05-20T17:35:57.084Z,34.50
2023-05-20T17:38:26.502Z,42.40
2023-05-20T17:40:55.271Z,46.60
2023-05-20T17:43:25.164Z,48.90
2023-05-20T17:45:53.330Z,47.10
2023-05-20T17:48:21.426Z,46.80
2023-05-20T17:50:49.520Z,49.10
2023-05-20T17:53:18.717Z,39.30
2023-05-20T17:55:49.506Z,39.60
2023-05-20T17:58:17.608Z,42.70
2023-05-20T18:00:45.577Z,38.40
2023-05-20T18:03:13.980Z,37.60
2023-05-20T18:05:42.564Z,38.40
2023-05-20T18:08:10.573Z,42.40
2023-05-20T18:10:38.930Z,48.60
2023-05-20T18:13:06.895Z,47.30
2023-05-20T18:15:34.846Z,57.80
2023-05-20T18:18:02.977Z,54.70
2023-05-20T18:20:31.146Z,42.90
2023-05-20T18:22:59.284Z,39.20
2023-05-20T18:25:27.400Z,37.50
2023-05-20T18:27:55.531Z,40.10
2023-05-20T18:30:23.686Z,38.00
2023-05-20T18:32:51.874Z,40.20
2023-05-20T18:35:19.928Z,40.40
2023-05-20T18:37:47.893Z,41.00
2023-05-20T18:40:15.927Z,37.90
2023-05-20T18:42:43.905Z,35.20
2023-05-20T18:45:12.277Z,36.70
2023-05-20T18:47:40.403Z,44.20
2023-05-20T18:50:09.635Z,44.90
2023-05-20T18:52:37.662Z,50.80
2023-05-20T18:55:08.974Z,48.10
2023-05-20T18:57:37.853Z,55.60
2023-05-20T19:00:10.784Z,58.50
2023-05-20T19:02:40.173Z,70.60
2023-05-20T19:05:09.346Z,61.20
2023-05-20T19:07:38.544Z,58.60
2023-05-20T19:10:07.521Z,56.40
2023-05-20T19:12:35.470Z,56.00
2023-05-20T19:15:05.188Z,56.30
2023-05-20T19:17:33.851Z,51.60
2023-05-20T19:20:02.565Z,60.30
2023-05-20T19:22:30.936Z,56.00
2023-05-20T19:24:59.351Z,61.00
2023-05-20T19:27:27.420Z,68.00
2023-05-20T19:29:55.571Z,71.10
2023-05-20T19:32:23.683Z,62.80
2023-05-20T19:34:51.682Z,64.20
2023-05-20T19:37:22.341Z,68.40
2023-05-20T19:39:51.124Z,58.00
2023-05-20T19:42:19.085Z,66.10
2023-05-20T19:44:47.289Z,62.30
2023-05-20T19:47:15.757Z,64.70
2023-05-20T19:49:43.749Z,62.20
2023-05-20T19:52:11.690Z,59.30
2023-05-20T19:54:41.785Z,59.70
2023-05-20T19:57:10.064Z,63.80
2023-05-20T19:59:38.357Z,64.00
2023-05-20T20:02:07.040Z,63.60
2023-05-20T20:04:36.468Z,64.00
2023-05-20T20:07:04.751Z,65.20
2023-05-20T20:09:33.454Z,67.90
2023-05-20T20:12:02.829Z,66.20
2023-05-20T20:14:31.376Z,68.90
2023-05-20T20:16:59.809Z,86.20
2023-05-20T20:19:28.633Z,90.30
2023-05-20T20:21:58.159Z,56.70
2023-05-20T20:24:28.028Z,56.80
2023-05-20T20:26:57.054Z,57.30
2023-05-20T20:29:25.702Z,74.70
2023-05-20T20:31:54.364Z,84.00
2023-05-20T20:34:22.807Z,79.10
2023-05-20T20:36:51.385Z,63.60
2023-05-20T20:39:19.496Z,67.30
2023-05-20T20:41:52.272Z,66.20
2023-05-20T20:44:23.126Z,63.00
2023-05-20T20:46:51.917Z,62.20
2023-05-20T20:49:22.172Z,63.40
2023-05-20T20:51:51.019Z,60.90
2023-05-20T20:54:19.010Z,63.90
2023-05-20T20:56:47.293Z,60.10
2023-05-20T20:59:16.045Z,58.30
2023-05-20T21:01:45.140Z,62.60
2023-05-20T21:04:13.974Z,60.10
2023-05-20T21:06:42.525Z,67.40
2023-05-20T21:09:11.640Z,85.60
2023-05-20T21:11:42.475Z,84.20
2023-05-20T21:14:12.407Z,70.00
2023-05-20T21:16:42.158Z,72.90
2023-05-20T21:19:12.930Z,67.10
2023-05-20T21:21:41.044Z,67.40
2023-05-20T21:24:09.019Z,59.70
2023-05-20T21:26:37.007Z,64.60
2023-05-20T21:29:06.111Z,66.60
2023-05-20T21:31:34.161Z,70.50
2023-05-20T21:34:02.254Z,66.90
2023-05-20T21:36:30.538Z,68.50
2023-05-20T21:38:58.485Z,62.50
2023-05-20T21:41:27.334Z,57.70
2023-05-20T21:43:55.555Z,57.80
2023-05-20T21:46:23.807Z,56.30
2023-05-20T21:48:51.865Z,54.90
2023-05-20T21:51:19.952Z,55.50
2023-05-20T21:53:47.924Z,50.80
2023-05-20T21:56:15.902Z,55.90
2023-05-20T21:58:43.892Z,54.80
2023-05-20T22:01:11.986Z,55.20
2023-05-20T22:03:40.344Z,53.30
2023-05-20T22:06:09.237Z,58.00
2023-05-20T22:08:37.267Z,62.50
2023-05-20T22:11:08.417Z,55.00
2023-05-20T22:13:36.410Z,61.40
2023-05-20T22:16:05.194Z,58.70
2023-05-20T22:18:34.048Z,56.70
2023-05-20T22:21:02.114Z,55.40
2023-05-20T22:23:30.093Z,55.70
2023-05-20T22:25:58.240Z,54.90
2023-05-20T22:28:26.334Z,53.10
2023-05-20T22:30:54.842Z,55.30
2023-05-20T22:33:24.389Z,59.60
2023-05-20T22:35:53.603Z,56.60
2023-05-20T22:38:22.033Z,57.90
2023-05-20T22:40:50.097Z,57.20
2023-05-20T22:43:18.068Z,54.90
2023-05-20T22:45:46.139Z,49.80
2023-05-20T22:48:14.388Z,53.40
2023-05-20T22:50:42.307Z,52.40
2023-05-20T22:53:10.237Z,52.00
2023-05-20T22:55:38.859Z,54.60
2023-05-20T22:58:08.024Z,54.90
2023-05-20T23:00:36.438Z,51.70
2023-05-20T23:03:05.107Z,54.50
2023-05-20T23:05:33.237Z,52.60
2023-05-20T23:08:01.422Z,51.20
2023-05-20T23:10:29.454Z,50.10
2023-05-20T23:12:57.399Z,52.60
2023-05-20T23:15:25.540Z,51.70
2023-05-20T23:17:53.590Z,54.00
2023-05-20T23:20:22.345Z,50.50
2023-05-20T23:22:50.646Z,51.40
2023-05-20T23:25:18.618Z,54.60
2023-05-20T23:27:46.697Z,50.90
2023-05-20T23:30:14.739Z,52.10
2023-05-20T23:32:42.855Z,51.60
2023-05-20T23:35:11.798Z,50.60
2023-05-20T23:37:41.227Z,53.80
2023-05-20T23:40:09.711Z,49.80
2023-05-20T23:42:38.032Z,54.30
2023-05-20T23:45:06.590Z,56.40
2023-05-20T23:47:36.323Z,55.70
2023-05-20T23:50:04.491Z,51.20
2023-05-20T23:52:32.503Z,54.90
2023-05-20T23:55:00.462Z,58.40
2023-05-20T23:57:28.525Z,58.40
2023-05-20T23:59:56.569Z,59.10
